PTI27 LSZB-LSZS
Flight info
| Callsign | PTI27 |
|---|---|
| Flight time | 0h 27m |
| Altitude | 23000 |
| Route | RAMOK Z143 BERSU Z50 PELAD |
| Aircraft | A319/M-SDE3FGHIRWY/LB1 |
Departure
| Time | 2026-04-22 17:51 |
|---|---|
| Airport | Bern Airport (LSZB) |
Arrival
| Time | 2026-04-22 18:18 |
|---|---|
| Airport | Engadin Airport (LSZS) |
| Time | Latitude | Longitude | Altitude | Speed | Heading |
|---|---|---|---|---|---|
| 2026-04-22 17:33 | 46.91272 | 7.50138 | 1705 ft | 0 kts | 96° |
| 2026-04-22 17:45 | 46.91272 | 7.50136 | 1721 ft | 2 kts | 96° |
| 2026-04-22 17:46 | 46.91272 | 7.50113 | 1729 ft | 2 kts | 76° |
| 2026-04-22 17:46 | 46.91266 | 7.50091 | 1729 ft | 2 kts | 43° |
| 2026-04-22 17:46 | 46.91252 | 7.50078 | 1723 ft | 2 kts | 6° |
| 2026-04-22 17:46 | 46.91236 | 7.50078 | 1723 ft | 2 kts | 336° |
| 2026-04-22 17:47 | 46.91230 | 7.50082 | 1723 ft | 0 kts | 322° |
| 2026-04-22 17:48 | 46.91263 | 7.50044 | 1724 ft | 10 kts | 321° |
| 2026-04-22 17:48 | 46.91251 | 7.49956 | 1684 ft | 13 kts | 217° |
| 2026-04-22 17:49 | 46.91168 | 7.50013 | 1689 ft | 17 kts | 140° |
| 2026-04-22 17:49 | 46.91060 | 7.50144 | 1726 ft | 23 kts | 140° |
| 2026-04-22 17:49 | 46.90922 | 7.50313 | 1728 ft | 29 kts | 140° |
| 2026-04-22 17:49 | 46.90782 | 7.50484 | 1726 ft | 26 kts | 140° |
| 2026-04-22 17:50 | 46.90720 | 7.50579 | 1718 ft | 10 kts | 176° |
| 2026-04-22 17:50 | 46.90743 | 7.50530 | 1724 ft | 10 kts | 336° |
| 2026-04-22 17:50 | 46.90762 | 7.50507 | 1724 ft | 5 kts | 320° |
| 2026-04-22 17:50 | 46.90972 | 7.50252 | 1724 ft | 84 kts | 320° |
| 2026-04-22 17:51 | 46.91673 | 7.49396 | 1747 ft | 167 kts | 322° |
| 2026-04-22 17:51 | 46.92553 | 7.48280 | 2639 ft | 166 kts | 321° |
| 2026-04-22 17:51 | 46.93420 | 7.47215 | 3668 ft | 162 kts | 324° |
| 2026-04-22 17:51 | 46.94334 | 7.46133 | 4372 ft | 179 kts | 328° |
| 2026-04-22 17:52 | 46.95370 | 7.44923 | 5019 ft | 195 kts | 328° |
| 2026-04-22 17:52 | 46.96578 | 7.44134 | 5794 ft | 192 kts | 359° |
| 2026-04-22 17:52 | 46.97877 | 7.44443 | 6628 ft | 191 kts | 28° |
| 2026-04-22 17:52 | 46.98850 | 7.45750 | 7397 ft | 194 kts | 60° |
| 2026-04-22 17:53 | 46.99183 | 7.47649 | 8241 ft | 196 kts | 88° |
| 2026-04-22 17:53 | 46.99210 | 7.49646 | 9133 ft | 197 kts | 89° |
| 2026-04-22 17:53 | 46.99243 | 7.51673 | 10010 ft | 201 kts | 88° |
| 2026-04-22 17:53 | 46.99280 | 7.53724 | 10792 ft | 204 kts | 88° |
| 2026-04-22 17:54 | 46.99316 | 7.55827 | 11627 ft | 207 kts | 88° |
| 2026-04-22 17:54 | 46.99352 | 7.57938 | 12472 ft | 208 kts | 86° |
| 2026-04-22 17:54 | 46.99390 | 7.60071 | 13325 ft | 210 kts | 87° |
| 2026-04-22 17:54 | 46.99427 | 7.62201 | 14124 ft | 213 kts | 86° |
| 2026-04-22 17:55 | 46.99453 | 7.63680 | 14609 ft | 216 kts | 86° |
| 2026-04-22 17:55 | 46.99527 | 7.66606 | 15601 ft | 218 kts | 79° |
| 2026-04-22 17:55 | 46.99975 | 7.68714 | 16339 ft | 218 kts | 61° |
| 2026-04-22 17:55 | 47.00881 | 7.70619 | 16706 ft | 242 kts | 49° |
| 2026-04-22 17:56 | 47.01991 | 7.72645 | 17216 ft | 267 kts | 50° |
| 2026-04-22 17:56 | 47.03206 | 7.74877 | 17733 ft | 291 kts | 50° |
| 2026-04-22 17:56 | 47.04505 | 7.77269 | 18179 ft | 316 kts | 50° |
| 2026-04-22 17:56 | 47.05930 | 7.79909 | 18529 ft | 340 kts | 49° |
| 2026-04-22 17:57 | 47.07446 | 7.82726 | 18911 ft | 359 kts | 49° |
| 2026-04-22 17:57 | 47.08992 | 7.85603 | 19567 ft | 368 kts | 49° |
| 2026-04-22 17:57 | 47.10485 | 7.88700 | 20370 ft | 375 kts | 57° |
| 2026-04-22 17:57 | 47.11583 | 7.92220 | 21168 ft | 385 kts | 68° |
| 2026-04-22 17:58 | 47.12366 | 7.96035 | 21945 ft | 392 kts | 74° |
| 2026-04-22 17:58 | 47.12551 | 8.00071 | 22677 ft | 405 kts | 94° |
| 2026-04-22 17:58 | 47.12008 | 8.04126 | 23090 ft | 410 kts | 100° |
| 2026-04-22 17:58 | 47.11354 | 8.08260 | 23179 ft | 419 kts | 101° |
| 2026-04-22 17:59 | 47.10663 | 8.12445 | 23192 ft | 423 kts | 101° |
| 2026-04-22 17:59 | 47.09957 | 8.16650 | 23192 ft | 424 kts | 101° |
| 2026-04-22 17:59 | 47.09253 | 8.20826 | 23191 ft | 424 kts | 101° |
| 2026-04-22 17:59 | 47.08547 | 8.25051 | 23203 ft | 425 kts | 101° |
| 2026-04-22 18:00 | 47.08085 | 8.27852 | 23186 ft | 425 kts | 100° |
| 2026-04-22 18:00 | 47.07163 | 8.33500 | 23193 ft | 426 kts | 100° |
| 2026-04-22 18:00 | 47.06473 | 8.37722 | 23192 ft | 426 kts | 100° |
| 2026-04-22 18:00 | 47.05774 | 8.41988 | 23192 ft | 426 kts | 100° |
| 2026-04-22 18:01 | 47.05087 | 8.46197 | 23193 ft | 426 kts | 100° |
| 2026-04-22 18:01 | 47.04397 | 8.50394 | 23190 ft | 426 kts | 101° |
| 2026-04-22 18:01 | 47.03410 | 8.54543 | 23188 ft | 430 kts | 111° |
| 2026-04-22 18:01 | 47.02034 | 8.58464 | 23191 ft | 431 kts | 116° |
| 2026-04-22 18:02 | 47.00618 | 8.62340 | 23188 ft | 431 kts | 115° |
| 2026-04-22 18:02 | 46.99211 | 8.66216 | 23205 ft | 431 kts | 115° |
| 2026-04-22 18:02 | 46.97800 | 8.70113 | 23200 ft | 431 kts | 115° |
| 2026-04-22 18:02 | 46.96406 | 8.73966 | 23198 ft | 431 kts | 115° |
| 2026-04-22 18:03 | 46.94995 | 8.77858 | 23194 ft | 431 kts | 115° |
| 2026-04-22 18:03 | 46.93597 | 8.81712 | 23188 ft | 431 kts | 116° |
| 2026-04-22 18:03 | 46.92186 | 8.85597 | 23197 ft | 431 kts | 115° |
| 2026-04-22 18:03 | 46.90775 | 8.89464 | 23179 ft | 431 kts | 116° |
| 2026-04-22 18:04 | 46.89348 | 8.93276 | 23172 ft | 431 kts | 119° |
| 2026-04-22 18:04 | 46.87590 | 8.96869 | 23167 ft | 433 kts | 127° |
| 2026-04-22 18:04 | 46.86312 | 8.99127 | 23163 ft | 434 kts | 128° |
| 2026-04-22 18:04 | 46.83765 | 9.03639 | 23162 ft | 433 kts | 127° |
| 2026-04-22 18:05 | 46.81852 | 9.07031 | 23161 ft | 433 kts | 128° |
| 2026-04-22 18:05 | 46.79931 | 9.10437 | 23157 ft | 433 kts | 128° |
| 2026-04-22 18:05 | 46.78663 | 9.12681 | 23152 ft | 433 kts | 128° |
| 2026-04-22 18:05 | 46.76745 | 9.16073 | 23142 ft | 429 kts | 128° |
| 2026-04-22 18:06 | 46.74858 | 9.19408 | 22629 ft | 422 kts | 128° |
| 2026-04-22 18:06 | 46.72966 | 9.22746 | 21314 ft | 431 kts | 128° |
| 2026-04-22 18:06 | 46.71078 | 9.26067 | 20674 ft | 422 kts | 128° |
| 2026-04-22 18:06 | 46.69212 | 9.29340 | 20012 ft | 415 kts | 128° |
| 2026-04-22 18:07 | 46.67406 | 9.32511 | 19357 ft | 409 kts | 128° |
| 2026-04-22 18:07 | 46.65600 | 9.35676 | 18695 ft | 404 kts | 128° |
| 2026-04-22 18:07 | 46.63807 | 9.38816 | 17949 ft | 399 kts | 127° |
| 2026-04-22 18:07 | 46.62005 | 9.41844 | 17253 ft | 393 kts | 133° |
| 2026-04-22 18:08 | 46.59909 | 9.44371 | 16558 ft | 389 kts | 144° |
| 2026-04-22 18:08 | 46.57559 | 9.46197 | 16332 ft | 371 kts | 156° |
| 2026-04-22 18:08 | 46.55202 | 9.47381 | 16193 ft | 346 kts | 161° |
| 2026-04-22 18:08 | 46.52968 | 9.48394 | 16039 ft | 332 kts | 161° |
| 2026-04-22 18:09 | 46.50802 | 9.49381 | 15892 ft | 319 kts | 161° |
| 2026-04-22 18:09 | 46.48727 | 9.50329 | 15751 ft | 308 kts | 161° |
| 2026-04-22 18:09 | 46.46722 | 9.51244 | 15625 ft | 299 kts | 161° |
| 2026-04-22 18:09 | 46.44755 | 9.52138 | 15490 ft | 292 kts | 161° |
| 2026-04-22 18:10 | 46.42839 | 9.53007 | 15363 ft | 283 kts | 161° |
| 2026-04-22 18:10 | 46.40984 | 9.53844 | 15242 ft | 272 kts | 161° |
| 2026-04-22 18:10 | 46.39196 | 9.54648 | 14968 ft | 269 kts | 161° |
| 2026-04-22 18:10 | 46.37430 | 9.55439 | 14492 ft | 275 kts | 161° |
| 2026-04-22 18:11 | 46.35577 | 9.56276 | 14060 ft | 276 kts | 159° |
| 2026-04-22 18:11 | 46.33959 | 9.57643 | 13581 ft | 265 kts | 128° |
| 2026-04-22 18:11 | 46.33231 | 9.59940 | 13198 ft | 246 kts | 91° |
| 2026-04-22 18:11 | 46.33488 | 9.62300 | 12860 ft | 232 kts | 68° |
| 2026-04-22 18:12 | 46.34085 | 9.64391 | 12540 ft | 222 kts | 62° |
| 2026-04-22 18:12 | 46.34736 | 9.66360 | 12207 ft | 213 kts | 62° |
| 2026-04-22 18:12 | 46.35393 | 9.68255 | 11869 ft | 206 kts | 56° |
| 2026-04-22 18:12 | 46.36380 | 9.69679 | 11531 ft | 198 kts | 33° |
| 2026-04-22 18:13 | 46.37475 | 9.70794 | 11157 ft | 192 kts | 35° |
| 2026-04-22 18:13 | 46.38483 | 9.71910 | 10808 ft | 171 kts | 36° |
| 2026-04-22 18:13 | 46.39392 | 9.72941 | 10486 ft | 158 kts | 35° |
| 2026-04-22 18:13 | 46.40236 | 9.73900 | 10177 ft | 150 kts | 35° |
| 2026-04-22 18:14 | 46.41039 | 9.74813 | 9872 ft | 142 kts | 36° |
| 2026-04-22 18:14 | 46.41800 | 9.75684 | 9577 ft | 136 kts | 36° |
| 2026-04-22 18:14 | 46.42530 | 9.76517 | 9310 ft | 129 kts | 36° |
| 2026-04-22 18:14 | 46.43226 | 9.77313 | 9060 ft | 125 kts | 34° |
| 2026-04-22 18:15 | 46.43904 | 9.78088 | 8812 ft | 123 kts | 36° |
| 2026-04-22 18:15 | 46.44578 | 9.78860 | 8552 ft | 124 kts | 36° |
| 2026-04-22 18:15 | 46.45259 | 9.79640 | 8297 ft | 124 kts | 35° |
| 2026-04-22 18:15 | 46.45925 | 9.80402 | 8049 ft | 123 kts | 36° |
| 2026-04-22 18:16 | 46.46593 | 9.81165 | 7806 ft | 122 kts | 36° |
| 2026-04-22 18:16 | 46.47265 | 9.81933 | 7580 ft | 122 kts | 36° |
| 2026-04-22 18:16 | 46.47921 | 9.82684 | 7362 ft | 122 kts | 36° |
| 2026-04-22 18:16 | 46.48592 | 9.83451 | 7146 ft | 123 kts | 36° |
| 2026-04-22 18:17 | 46.49266 | 9.84221 | 6917 ft | 123 kts | 35° |
| 2026-04-22 18:17 | 46.49944 | 9.84993 | 6675 ft | 124 kts | 35° |
| 2026-04-22 18:17 | 46.50609 | 9.85750 | 6363 ft | 122 kts | 36° |
| 2026-04-22 18:17 | 46.51271 | 9.86513 | 6088 ft | 120 kts | 36° |
| 2026-04-22 18:18 | 46.51967 | 9.87184 | 5884 ft | 120 kts | 31° |
| 2026-04-22 18:18 | 46.52684 | 9.87788 | 5659 ft | 118 kts | 28° |
| 2026-04-22 18:18 | 46.53316 | 9.88310 | 5617 ft | 76 kts | 29° |
| 2026-04-22 18:18 | 46.53568 | 9.88513 | 5615 ft | 31 kts | 29° |
| 2026-04-22 18:19 | 46.53769 | 9.88677 | 5613 ft | 37 kts | 28° |
| 2026-04-22 18:19 | 46.53949 | 9.88821 | 5614 ft | 25 kts | 29° |
| 2026-04-22 18:19 | 46.54058 | 9.88911 | 5617 ft | 10 kts | 38° |
| 2026-04-22 18:19 | 46.54043 | 9.89014 | 5615 ft | 10 kts | 125° |
| 2026-04-22 18:20 | 46.53978 | 9.88987 | 5611 ft | 13 kts | 209° |
| 2026-04-22 18:20 | 46.53885 | 9.88911 | 5612 ft | 19 kts | 209° |
| 2026-04-22 18:20 | 46.53754 | 9.88807 | 5610 ft | 24 kts | 208° |
| 2026-04-22 18:20 | 46.53604 | 9.88683 | 5610 ft | 22 kts | 209° |
| 2026-04-22 18:21 | 46.53463 | 9.88570 | 5611 ft | 25 kts | 210° |
| 2026-04-22 18:21 | 46.53306 | 9.88442 | 5612 ft | 23 kts | 209° |
| 2026-04-22 18:21 | 46.53162 | 9.88324 | 5608 ft | 23 kts | 209° |
| 2026-04-22 18:21 | 46.53014 | 9.88206 | 5608 ft | 24 kts | 208° |
| 2026-04-22 18:22 | 46.52937 | 9.88124 | 5606 ft | 9 kts | 268° |
| 2026-04-22 18:22 | 46.52965 | 9.88040 | 5608 ft | 7 kts | 300° |
| 2026-04-22 18:22 | 46.52991 | 9.87973 | 5610 ft | 7 kts | 300° |
| 2026-04-22 18:22 | 46.53029 | 9.87927 | 5610 ft | 7 kts | 340° |
| 2026-04-22 18:23 | 46.53035 | 9.87923 | 5610 ft | 0 kts | 340° |